createdAt,value
2023-02-07T00:00:44.744Z,96269.59
2023-02-07T00:03:11.739Z,96273.28
2023-02-07T00:05:39.127Z,96266.97
2023-02-07T00:08:07.555Z,96270.63
2023-02-07T00:10:35.140Z,96262.56
2023-02-07T00:13:01.841Z,96269.16
2023-02-07T00:15:28.599Z,96257.00
2023-02-07T00:17:55.241Z,96256.19
2023-02-07T00:20:21.936Z,96258.66
2023-02-07T00:22:48.622Z,96248.81
2023-02-07T00:25:15.303Z,96250.41
2023-02-07T00:27:42.040Z,96243.34
2023-02-07T00:30:09.372Z,96244.63
2023-02-07T00:32:36.010Z,96233.44
2023-02-07T00:35:03.112Z,96240.59
2023-02-07T00:37:29.835Z,96239.19
2023-02-07T00:39:56.529Z,96238.41
2023-02-07T00:42:23.224Z,96237.66
2023-02-07T00:44:49.918Z,96236.78
2023-02-07T00:47:16.590Z,96230.25
2023-02-07T00:49:43.215Z,96230.59
2023-02-07T00:52:09.994Z,96230.88
2023-02-07T00:54:36.635Z,96230.94
2023-02-07T00:57:03.299Z,96238.31
2023-02-07T00:59:29.957Z,96223.59
2023-02-07T01:01:56.618Z,96227.13
2023-02-07T01:04:23.318Z,96225.69
2023-02-07T01:06:50.048Z,96225.00
2023-02-07T01:09:16.843Z,96223.03
2023-02-07T01:11:43.532Z,96212.94
2023-02-07T01:14:11.088Z,96215.84
2023-02-07T01:16:37.820Z,96220.75
2023-02-07T01:19:10.315Z,96221.09
2023-02-07T01:21:37.203Z,96222.94
2023-02-07T01:24:04.168Z,96220.53
2023-02-07T01:26:30.843Z,96225.16
2023-02-07T01:28:57.768Z,96230.41
2023-02-07T01:31:25.035Z,96217.53
2023-02-07T01:33:56.175Z,96215.78
2023-02-07T01:36:23.520Z,96215.00
2023-02-07T01:38:53.316Z,96221.75
2023-02-07T01:41:21.535Z,96229.75
2023-02-07T01:44:02.196Z,96236.47
2023-02-07T01:46:31.665Z,96238.72
2023-02-07T01:49:02.432Z,96246.84
2023-02-07T01:51:30.180Z,96250.47
2023-02-07T01:54:00.925Z,96249.41
2023-02-07T01:56:31.843Z,96248.22
2023-02-07T01:58:59.828Z,96235.75
2023-02-07T02:01:26.756Z,96249.16
2023-02-07T02:03:57.050Z,96248.94
2023-02-07T02:06:27.388Z,96243.28
2023-02-07T02:08:59.907Z,96254.38
2023-02-07T02:11:42.607Z,96242.59
2023-02-07T02:14:27.631Z,96251.41
2023-02-07T02:17:26.450Z,96248.75
2023-02-07T02:20:10.824Z,96252.53
2023-02-07T02:22:56.188Z,96256.25
2023-02-07T02:26:11.642Z,96270.50
2023-02-07T02:29:09.569Z,96274.94
2023-02-07T02:32:04.838Z,96272.38
2023-02-07T02:34:43.249Z,96272.25
2023-02-07T02:37:29.325Z,96285.09
2023-02-07T02:40:10.393Z,96292.06
2023-02-07T02:42:50.463Z,96280.34
2023-02-07T02:45:24.366Z,96293.25
2023-02-07T02:47:51.839Z,96285.59
2023-02-07T02:50:25.382Z,96288.47
2023-02-07T02:52:52.037Z,96291.19
2023-02-07T02:55:27.822Z,96283.94
2023-02-07T02:58:02.174Z,96289.41
2023-02-07T03:00:35.255Z,96289.63
2023-02-07T03:03:20.675Z,96289.22
2023-02-07T03:06:12.102Z,96288.81
2023-02-07T03:08:50.392Z,96296.88
2023-02-07T03:11:20.073Z,96304.25
2023-02-07T03:14:01.259Z,96300.47
2023-02-07T03:16:48.078Z,96305.63
2023-02-07T03:19:40.576Z,96303.09
2023-02-07T03:22:13.218Z,96302.06
2023-02-07T03:24:45.116Z,96312.03
2023-02-07T03:27:15.714Z,96313.69
2023-02-07T03:29:46.213Z,96312.19
2023-02-07T03:32:14.675Z,96334.00
2023-02-07T03:34:52.679Z,96325.66
2023-02-07T03:37:27.564Z,96326.81
2023-02-07T03:39:54.515Z,96331.72
2023-02-07T03:42:27.831Z,96328.81
2023-02-07T03:44:57.244Z,96329.50
2023-02-07T03:47:25.989Z,96320.41
2023-02-07T03:49:52.609Z,96324.06
2023-02-07T03:52:19.167Z,96310.81
2023-02-07T03:54:45.826Z,96317.44
2023-02-07T03:57:12.403Z,96317.75
2023-02-07T03:59:38.975Z,96309.00
2023-02-07T04:02:05.870Z,96303.41
2023-02-07T04:04:32.439Z,96293.81
2023-02-07T04:06:59.123Z,96289.81
2023-02-07T04:09:25.763Z,96293.03
2023-02-07T04:11:52.713Z,96289.75
2023-02-07T04:14:22.611Z,96282.03
2023-02-07T04:16:49.819Z,96274.19
2023-02-07T04:19:16.590Z,96279.41
2023-02-07T04:21:43.156Z,96284.94
2023-02-07T04:24:09.790Z,96279.31
2023-02-07T04:26:36.506Z,96285.38
2023-02-07T04:29:03.299Z,96281.06
2023-02-07T04:31:29.985Z,96281.63
2023-02-07T04:33:56.578Z,96283.22
2023-02-07T04:36:23.178Z,96291.69
2023-02-07T04:38:49.900Z,96293.19
2023-02-07T04:41:16.965Z,96290.63
2023-02-07T04:43:43.569Z,96284.00
2023-02-07T04:46:10.256Z,96277.72
2023-02-07T04:48:40.282Z,96276.25
2023-02-07T04:51:07.439Z,96280.59
2023-02-07T04:53:34.601Z,96275.50
2023-02-07T04:56:01.327Z,96280.66
2023-02-07T04:58:28.657Z,96278.09
2023-02-07T05:00:55.378Z,96265.56
2023-02-07T05:03:22.147Z,96266.88
2023-02-07T05:05:49.150Z,96265.81
2023-02-07T05:08:15.745Z,96267.66
2023-02-07T05:10:42.554Z,96260.34
2023-02-07T05:13:09.708Z,96259.94
2023-02-07T05:15:36.645Z,96264.72
2023-02-07T05:18:04.757Z,96263.53
2023-02-07T05:20:31.380Z,96266.00
2023-02-07T05:22:57.964Z,96271.41
2023-02-07T05:25:24.674Z,96276.44
2023-02-07T05:27:51.243Z,96276.97
2023-02-07T05:30:18.328Z,96275.09
2023-02-07T05:33:03.424Z,96282.78
2023-02-07T05:35:33.946Z,96286.50
2023-02-07T05:38:00.810Z,96287.94
2023-02-07T05:40:27.698Z,96279.13
2023-02-07T05:42:55.027Z,96276.53
2023-02-07T05:45:21.990Z,96281.28
2023-02-07T05:47:48.973Z,96287.84
2023-02-07T05:50:16.154Z,96286.69
2023-02-07T05:52:43.141Z,96287.09
2023-02-07T05:55:10.770Z,96287.03
2023-02-07T05:57:37.399Z,96286.31
2023-02-07T06:00:04.695Z,96295.78
2023-02-07T06:02:31.335Z,96295.38
2023-02-07T06:04:57.993Z,96302.34
2023-02-07T06:07:24.556Z,96303.81
2023-02-07T06:09:51.239Z,96302.00
2023-02-07T06:12:17.793Z,96295.38
2023-02-07T06:14:44.366Z,96293.50
2023-02-07T06:17:11.116Z,96291.59
2023-02-07T06:19:37.718Z,96292.22
2023-02-07T06:22:04.265Z,96284.59
2023-02-07T06:24:30.806Z,96288.28
2023-02-07T06:26:57.376Z,96286.88
2023-02-07T06:29:24.056Z,96283.91
2023-02-07T06:31:50.666Z,96293.78
2023-02-07T06:34:17.280Z,96290.81
2023-02-07T06:36:43.855Z,96303.66
2023-02-07T06:39:11.269Z,96305.81
2023-02-07T06:41:37.962Z,96304.72
2023-02-07T06:44:05.144Z,96306.84
2023-02-07T06:46:31.910Z,96313.44
2023-02-07T06:48:58.601Z,96313.03
2023-02-07T06:51:25.241Z,96307.19
2023-02-07T06:53:51.814Z,96319.63
2023-02-07T06:56:18.747Z,96314.47
2023-02-07T06:58:45.569Z,96318.81
2023-02-07T07:01:12.346Z,96310.44
2023-02-07T07:03:38.963Z,96307.88
2023-02-07T07:06:05.872Z,96304.13
2023-02-07T07:08:32.613Z,96301.25
2023-02-07T07:10:59.146Z,96309.34
2023-02-07T07:13:25.791Z,96321.50
2023-02-07T07:15:52.431Z,96323.31
2023-02-07T07:18:19.235Z,96321.16
2023-02-07T07:20:45.882Z,96316.75
2023-02-07T07:23:12.555Z,96318.25
2023-02-07T07:25:39.341Z,96324.06
2023-02-07T07:28:06.066Z,96317.44
2023-02-07T07:30:32.751Z,96328.50
2023-02-07T07:32:59.344Z,96320.72
2023-02-07T07:35:25.879Z,96325.56
2023-02-07T07:37:52.489Z,96321.16
2023-02-07T07:40:19.340Z,96316.09
2023-02-07T07:42:45.937Z,96319.06
2023-02-07T07:45:13.545Z,96317.16
2023-02-07T07:47:40.156Z,96318.28
2023-02-07T07:50:07.749Z,96317.22
2023-02-07T07:52:35.030Z,96316.53
2023-02-07T07:55:01.663Z,96310.66
2023-02-07T07:57:31.107Z,96307.41
2023-02-07T07:59:57.794Z,96308.22
2023-02-07T08:02:24.515Z,96307.88
2023-02-07T08:04:51.377Z,96299.84
2023-02-07T08:07:18.220Z,96301.31
2023-02-07T08:09:44.776Z,96304.91
2023-02-07T08:12:11.312Z,96296.34
2023-02-07T08:14:37.906Z,96289.09
2023-02-07T08:17:04.464Z,96281.16
2023-02-07T08:19:31.041Z,96275.28
2023-02-07T08:21:57.607Z,96280.47
2023-02-07T08:24:24.742Z,96282.78
2023-02-07T08:26:51.613Z,96295.16
2023-02-07T08:29:18.289Z,96297.75
2023-02-07T08:31:44.866Z,96297.66
2023-02-07T08:34:12.175Z,96308.16
2023-02-07T08:36:39.538Z,96310.22
2023-02-07T08:39:06.772Z,96310.16
2023-02-07T08:41:33.558Z,96307.44
2023-02-07T08:44:00.159Z,96311.88
2023-02-07T08:46:26.923Z,96314.53
2023-02-07T08:48:53.523Z,96303.94
2023-02-07T08:51:20.105Z,96302.91
2023-02-07T08:53:46.676Z,96298.88
2023-02-07T08:56:13.275Z,96301.84
2023-02-07T08:58:41.069Z,96306.34
2023-02-07T09:01:11.295Z,96313.94
2023-02-07T09:03:38.799Z,96310.78
2023-02-07T09:06:06.088Z,96321.47
2023-02-07T09:08:32.903Z,96317.47
2023-02-07T09:10:59.538Z,96318.66
2023-02-07T09:13:26.164Z,96323.00
2023-02-07T09:15:59.108Z,96315.03
2023-02-07T09:18:26.181Z,96326.91
2023-02-07T09:20:53.536Z,96330.41
2023-02-07T09:23:23.408Z,96330.31
2023-02-07T09:25:52.677Z,96312.75
2023-02-07T09:28:22.298Z,96332.47
2023-02-07T09:30:49.998Z,96329.50
2023-02-07T09:33:17.208Z,96335.78
2023-02-07T09:35:46.465Z,96342.47
2023-02-07T09:38:15.918Z,96350.59
2023-02-07T09:40:43.581Z,96342.06
2023-02-07T09:43:19.084Z,96338.00
2023-02-07T09:45:48.982Z,96346.66
2023-02-07T09:48:30.851Z,96347.94
2023-02-07T09:51:01.783Z,96341.94
2023-02-07T09:53:41.014Z,96350.13
2023-02-07T09:56:08.836Z,96353.09
2023-02-07T09:58:42.057Z,96345.81
2023-02-07T10:01:15.898Z,96349.94
2023-02-07T10:04:02.637Z,96351.72
2023-02-07T10:06:29.350Z,96352.13
2023-02-07T10:08:59.728Z,96350.69
2023-02-07T10:11:44.470Z,96361.03
2023-02-07T10:14:35.219Z,96359.91
2023-02-07T10:17:14.054Z,96361.81
2023-02-07T10:20:04.947Z,96356.03
2023-02-07T10:23:02.095Z,96359.03
2023-02-07T10:25:53.263Z,96358.03
2023-02-07T10:28:29.159Z,96361.00
2023-02-07T10:31:00.459Z,96361.56
2023-02-07T10:33:34.204Z,96367.59
2023-02-07T10:36:04.621Z,96369.41
2023-02-07T10:38:38.486Z,96354.84
2023-02-07T10:41:17.192Z,96350.50
2023-02-07T10:43:46.214Z,96348.72
2023-02-07T10:46:16.473Z,96351.38
2023-02-07T10:48:43.072Z,96347.41
2023-02-07T10:51:39.063Z,96346.72
2023-02-07T10:54:11.778Z,96348.25
2023-02-07T10:56:44.438Z,96347.56
2023-02-07T10:59:46.178Z,96354.91
2023-02-07T11:02:28.332Z,96350.94
2023-02-07T11:04:57.047Z,96349.47
2023-02-07T11:07:25.248Z,96352.84
2023-02-07T11:09:52.313Z,96351.38
2023-02-07T11:12:21.668Z,96358.06
2023-02-07T11:15:15.618Z,96354.50
2023-02-07T11:17:49.447Z,96361.13
2023-02-07T11:20:36.076Z,96358.22
2023-02-07T11:23:07.980Z,96362.34
2023-02-07T11:25:41.477Z,96370.47
2023-02-07T11:28:20.301Z,96362.78
2023-02-07T11:30:53.329Z,96365.63
2023-02-07T11:33:23.674Z,96366.78
2023-02-07T11:36:18.886Z,96366.44
2023-02-07T11:38:51.030Z,96365.41
2023-02-07T11:41:20.859Z,96359.50
2023-02-07T11:43:58.598Z,96362.47
2023-02-07T11:46:41.580Z,96352.59
2023-02-07T11:49:21.323Z,96344.19
2023-02-07T11:51:52.938Z,96345.31
2023-02-07T11:54:19.847Z,96350.84
2023-02-07T11:56:55.415Z,96347.56
2023-02-07T11:59:24.782Z,96341.31
2023-02-07T12:01:55.486Z,96336.56
2023-02-07T12:04:37.808Z,96338.78
2023-02-07T12:07:25.741Z,96337.69
2023-02-07T12:10:05.512Z,96333.66
2023-02-07T12:12:50.069Z,96336.66
2023-02-07T12:15:27.089Z,96337.00
2023-02-07T12:17:57.307Z,96335.94
2023-02-07T12:20:35.486Z,96337.06
2023-02-07T12:23:42.622Z,96327.50
2023-02-07T12:26:21.735Z,96329.72
2023-02-07T12:29:13.539Z,96326.44
2023-02-07T12:31:51.197Z,96329.00
2023-02-07T12:34:30.793Z,96322.00
2023-02-07T12:37:12.027Z,96323.09
2023-02-07T12:39:50.005Z,96310.53
2023-02-07T12:42:32.859Z,96306.84
2023-02-07T12:45:01.597Z,96309.47
2023-02-07T12:47:31.250Z,96298.38
2023-02-07T12:50:19.319Z,96296.88
2023-02-07T12:52:57.751Z,96298.38
2023-02-07T12:55:51.526Z,96297.63
2023-02-07T12:58:44.571Z,96298.34
2023-02-07T13:01:15.019Z,96290.22
2023-02-07T13:04:03.304Z,96289.47
2023-02-07T13:06:42.648Z,96292.06
2023-02-07T13:09:20.572Z,96291.31
2023-02-07T13:12:14.935Z,96292.41
2023-02-07T13:14:41.531Z,96291.28
2023-02-07T13:17:17.077Z,96287.56
2023-02-07T13:19:53.834Z,96295.31
2023-02-07T13:22:36.144Z,96294.94
2023-02-07T13:25:04.910Z,96288.25
2023-02-07T13:27:31.947Z,96288.66
2023-02-07T13:30:01.355Z,96290.84
2023-02-07T13:32:28.326Z,96288.25
2023-02-07T13:35:03.050Z,96283.38
2023-02-07T13:37:47.007Z,96285.59
2023-02-07T13:40:23.137Z,96283.72
2023-02-07T13:43:00.724Z,96295.53
2023-02-07T13:45:45.817Z,96287.41
2023-02-07T13:48:18.250Z,96286.63
2023-02-07T13:50:54.399Z,96293.69
2023-02-07T13:53:45.581Z,96294.00
2023-02-07T13:56:32.935Z,96290.69
2023-02-07T13:59:19.746Z,96296.22
2023-02-07T14:01:50.481Z,96303.25
2023-02-07T14:04:18.173Z,96296.56
2023-02-07T14:06:55.332Z,96292.09
2023-02-07T14:09:21.891Z,96295.78
2023-02-07T14:11:56.461Z,96293.19
2023-02-07T14:14:34.985Z,96295.50
2023-02-07T14:17:04.667Z,96292.53
2023-02-07T14:19:40.516Z,96298.03
2023-02-07T14:22:24.564Z,96301.00
2023-02-07T14:25:17.948Z,96300.63
2023-02-07T14:27:50.829Z,96296.16
2023-02-07T14:30:37.455Z,96306.91
2023-02-07T14:33:20.045Z,96311.72
2023-02-07T14:35:46.686Z,96319.09
2023-02-07T14:38:30.372Z,96313.53
2023-02-07T14:41:10.578Z,96324.28
2023-02-07T14:44:08.551Z,96325.75
2023-02-07T14:46:40.470Z,96335.38
2023-02-07T14:49:20.598Z,96332.06
2023-02-07T14:51:55.363Z,96325.09
2023-02-07T14:54:40.770Z,96320.69
2023-02-07T14:57:26.328Z,96329.16
2023-02-07T15:00:14.310Z,96319.94
2023-02-07T15:02:42.678Z,96332.06
2023-02-07T15:05:20.333Z,96325.53
2023-02-07T15:07:48.618Z,96315.19
2023-02-07T15:10:21.037Z,96334.47
2023-02-07T15:12:48.141Z,96328.06
2023-02-07T15:15:30.026Z,96334.38
2023-02-07T15:17:59.718Z,96338.81
2023-02-07T15:20:34.641Z,96330.41
2023-02-07T15:23:04.346Z,96338.84
2023-02-07T15:25:32.827Z,96342.91
2023-02-07T15:28:06.621Z,96343.31
2023-02-07T15:30:35.983Z,96342.59
2023-02-07T15:33:11.801Z,96345.19
2023-02-07T15:35:41.796Z,96340.41
2023-02-07T15:38:18.061Z,96347.78
2023-02-07T15:40:45.008Z,96347.06
2023-02-07T15:43:38.105Z,96350.00
2023-02-07T15:46:06.595Z,96348.16
2023-02-07T15:48:44.758Z,96353.41
2023-02-07T15:51:12.726Z,96349.31
2023-02-07T15:53:40.387Z,96353.75
2023-02-07T15:56:07.528Z,96355.97
2023-02-07T15:58:37.320Z,96369.16
2023-02-07T16:01:07.146Z,96360.53
2023-02-07T16:03:41.775Z,96363.44
2023-02-07T16:06:15.616Z,96363.56
2023-02-07T16:08:43.157Z,96360.28
2023-02-07T16:11:30.259Z,96365.53
2023-02-07T16:14:00.025Z,96364.38
2023-02-07T16:16:33.424Z,96371.41
2023-02-07T16:19:07.760Z,96372.88
2023-02-07T16:21:36.645Z,96375.50
2023-02-07T16:24:11.724Z,96377.75
2023-02-07T16:26:38.436Z,96378.84
2023-02-07T16:29:07.240Z,96381.06
2023-02-07T16:31:35.400Z,96385.53
2023-02-07T16:34:02.066Z,96385.19
2023-02-07T16:36:29.384Z,96374.47
2023-02-07T16:38:55.954Z,96387.75
2023-02-07T16:41:31.509Z,96386.28
2023-02-07T16:44:02.447Z,96390.00
2023-02-07T16:46:29.882Z,96388.16
2023-02-07T16:48:56.547Z,96387.03
2023-02-07T16:51:23.703Z,96392.94
2023-02-07T16:53:51.151Z,96397.38
2023-02-07T16:56:27.949Z,96390.72
2023-02-07T16:58:54.719Z,96402.53
2023-02-07T17:01:22.135Z,96397.38
2023-02-07T17:03:48.922Z,96393.31
2023-02-07T17:06:18.345Z,96401.44
2023-02-07T17:08:45.435Z,96414.38
2023-02-07T17:11:24.995Z,96419.53
2023-02-07T17:13:59.114Z,96414.38
2023-02-07T17:16:27.726Z,96411.78
2023-02-07T17:18:54.304Z,96404.78
2023-02-07T17:21:22.428Z,96409.94
2023-02-07T17:23:49.498Z,96402.91
2023-02-07T17:26:34.703Z,96411.78
2023-02-07T17:29:01.588Z,96411.06
2023-02-07T17:31:28.289Z,96402.16
2023-02-07T17:33:56.652Z,96408.09
2023-02-07T17:36:23.543Z,96398.50
2023-02-07T17:38:55.687Z,96404.75
2023-02-07T17:41:23.071Z,96401.06
2023-02-07T17:43:57.762Z,96406.97
2023-02-07T17:46:27.166Z,96412.16
2023-02-07T17:48:54.506Z,96405.50
2023-02-07T17:51:23.712Z,96408.47
2023-02-07T17:53:51.198Z,96410.28
2023-02-07T17:56:23.268Z,96413.59
2023-02-07T17:58:51.199Z,96403.28
2023-02-07T18:01:19.389Z,96407.31
2023-02-07T18:03:47.257Z,96406.22
2023-02-07T18:06:16.106Z,96406.53
2023-02-07T18:08:44.875Z,96409.50
2023-02-07T18:11:14.261Z,96408.03
2023-02-07T18:13:42.244Z,96416.88
2023-02-07T18:16:11.363Z,96409.88
2023-02-07T18:18:39.957Z,96403.22
2023-02-07T18:21:06.689Z,96410.97
2023-02-07T18:23:33.430Z,96410.97
2023-02-07T18:26:05.279Z,96414.22
2023-02-07T18:28:32.275Z,96408.44
2023-02-07T18:30:58.912Z,96404.41
2023-02-07T18:33:25.613Z,96408.44
2023-02-07T18:35:58.597Z,96411.00
2023-02-07T18:38:25.268Z,96415.78
2023-02-07T18:40:51.856Z,96409.50
2023-02-07T18:43:18.797Z,96409.84
2023-02-07T18:45:45.401Z,96412.81
2023-02-07T18:48:12.142Z,96414.31
2023-02-07T18:50:44.785Z,96410.97
2023-02-07T18:53:12.909Z,96417.25
2023-02-07T18:55:39.760Z,96402.44
2023-02-07T18:58:06.501Z,96409.81
2023-02-07T19:00:33.188Z,96411.28
2023-02-07T19:02:59.760Z,96404.88
2023-02-07T19:05:26.847Z,96411.22
2023-02-07T19:07:54.749Z,96395.75
2023-02-07T19:10:21.546Z,96399.06
2023-02-07T19:12:48.365Z,96404.59
2023-02-07T19:15:15.294Z,96413.44
2023-02-07T19:17:42.317Z,96404.88
2023-02-07T19:20:09.985Z,96404.19
2023-02-07T19:22:37.723Z,96402.34
2023-02-07T19:25:05.684Z,96404.91
2023-02-07T19:27:32.619Z,96395.63
2023-02-07T19:29:59.533Z,96395.66
2023-02-07T19:32:26.341Z,96394.13
2023-02-07T19:34:53.269Z,96387.91
2023-02-07T19:37:20.165Z,96393.03
2023-02-07T19:39:49.181Z,96388.63
2023-02-07T19:42:16.501Z,96392.66
2023-02-07T19:44:43.281Z,96381.97
2023-02-07T19:47:10.018Z,96388.22
2023-02-07T19:49:36.664Z,96383.44
2023-02-07T19:52:03.438Z,96391.53
2023-02-07T19:54:30.080Z,96391.91
2023-02-07T19:56:56.777Z,96391.16
2023-02-07T19:59:23.499Z,96391.91
2023-02-07T20:01:50.819Z,96389.66
2023-02-07T20:04:17.910Z,96395.94
2023-02-07T20:06:44.580Z,96397.00
2023-02-07T20:09:11.475Z,96400.31
2023-02-07T20:11:39.477Z,96391.81
2023-02-07T20:14:07.019Z,96390.34
2023-02-07T20:16:37.411Z,96385.91
2023-02-07T20:19:06.821Z,96391.03
2023-02-07T20:21:35.819Z,96382.91
2023-02-07T20:24:03.606Z,96386.97
2023-02-07T20:26:37.782Z,96389.16
2023-02-07T20:29:12.927Z,96389.16
2023-02-07T20:31:41.670Z,96395.41
2023-02-07T20:34:09.799Z,96394.63
2023-02-07T20:36:41.897Z,96405.31
2023-02-07T20:39:12.370Z,96406.41
2023-02-07T20:41:41.590Z,96410.06
2023-02-07T20:44:13.146Z,96406.31
2023-02-07T20:46:41.176Z,96407.41
2023-02-07T20:49:14.867Z,96417.72
2023-02-07T20:51:43.881Z,96417.31
2023-02-07T20:54:12.803Z,96422.47
2023-02-07T20:56:39.672Z,96414.69
2023-02-07T20:59:07.805Z,96416.16
2023-02-07T21:01:37.056Z,96437.13
2023-02-07T21:04:06.266Z,96428.25
2023-02-07T21:06:34.258Z,96423.84
2023-02-07T21:09:03.014Z,96426.03
2023-02-07T21:11:40.223Z,96422.19
2023-02-07T21:14:10.572Z,96424.09
2023-02-07T21:16:37.582Z,96414.88
2023-02-07T21:19:04.417Z,96414.84
2023-02-07T21:21:31.657Z,96412.28
2023-02-07T21:23:58.870Z,96419.63
2023-02-07T21:26:28.978Z,96409.66
2023-02-07T21:29:03.785Z,96412.56
2023-02-07T21:31:31.957Z,96405.94
2023-02-07T21:34:02.906Z,96406.28
2023-02-07T21:36:32.116Z,96404.44
2023-02-07T21:39:04.656Z,96405.13
2023-02-07T21:41:31.615Z,96406.22
2023-02-07T21:43:59.040Z,96404.75
2023-02-07T21:46:31.506Z,96403.25
2023-02-07T21:49:03.185Z,96399.56
2023-02-07T21:51:32.471Z,96408.38
2023-02-07T21:54:00.112Z,96404.28
2023-02-07T21:56:29.990Z,96413.84
2023-02-07T21:58:59.088Z,96406.81
2023-02-07T22:01:26.445Z,96395.41
2023-02-07T22:03:55.312Z,96403.09
2023-02-07T22:06:22.454Z,96397.53
2023-02-07T22:08:51.558Z,96390.16
2023-02-07T22:11:20.759Z,96395.31
2023-02-07T22:13:48.703Z,96386.44
2023-02-07T22:16:17.313Z,96396.69
2023-02-07T22:18:44.134Z,96393.03
2023-02-07T22:21:14.448Z,96396.69
2023-02-07T22:23:42.104Z,96394.06
2023-02-07T22:26:09.406Z,96393.69
2023-02-07T22:28:38.907Z,96395.09
2023-02-07T22:31:14.118Z,96388.09
2023-02-07T22:33:41.354Z,96387.69
2023-02-07T22:36:20.173Z,96384.75
2023-02-07T22:38:48.081Z,96373.66
2023-02-07T22:41:15.334Z,96383.25
2023-02-07T22:43:42.259Z,96379.47
2023-02-07T22:46:12.447Z,96380.94
2023-02-07T22:48:39.080Z,96380.22
2023-02-07T22:51:28.813Z,96380.59
2023-02-07T22:53:58.282Z,96378.69
2023-02-07T22:56:26.012Z,96380.78
2023-02-07T22:58:53.976Z,96374.19
2023-02-07T23:01:23.449Z,96374.53
2023-02-07T23:03:51.099Z,96368.25
2023-02-07T23:06:18.166Z,96376.75
2023-02-07T23:08:45.142Z,96369.72
2023-02-07T23:11:13.748Z,96370.75
2023-02-07T23:13:41.390Z,96373.00
2023-02-07T23:16:18.845Z,96382.19
2023-02-07T23:18:45.458Z,96375.91
2023-02-07T23:21:14.238Z,96380.66
2023-02-07T23:23:41.289Z,96371.06
2023-02-07T23:26:09.380Z,96373.97
2023-02-07T23:28:37.345Z,96376.91
2023-02-07T23:31:08.894Z,96371.41
2023-02-07T23:33:36.419Z,96373.50
2023-02-07T23:36:03.988Z,96373.09
2023-02-07T23:38:31.050Z,96372.41
2023-02-07T23:40:57.950Z,96376.47
2023-02-07T23:43:25.285Z,96369.41
2023-02-07T23:45:52.373Z,96363.91
2023-02-07T23:48:19.221Z,96370.16
2023-02-07T23:50:51.033Z,96362.75
2023-02-07T23:53:17.581Z,96359.06
2023-02-07T23:55:44.307Z,96358.28
2023-02-07T23:58:11.201Z,96354.94
